sensor_id;sensor_type;location;lat;lon;timestamp;temperature;humidity
34877;DHT22;21086;44.780;17.194;2022-08-19T00:17:11;22.90;99.90
34877;DHT22;21086;44.780;17.194;2022-08-19T00:22:38;24.60;99.90
34877;DHT22;21086;44.780;17.194;2022-08-19T00:30:26;24.60;99.90
34877;DHT22;21086;44.780;17.194;2022-08-19T00:52:12;24.40;99.90
34877;DHT22;21086;44.780;17.194;2022-08-19T00:57:12;24.30;99.90
34877;DHT22;21086;44.780;17.194;2022-08-19T00:59:42;24.30;99.90
34877;DHT22;21086;44.780;17.194;2022-08-19T01:17:13;24.40;99.90
34877;DHT22;21086;44.780;17.194;2022-08-19T01:19:42;23.20;99.90
34877;DHT22;21086;44.780;17.194;2022-08-19T01:31:26;23.90;99.90
34877;DHT22;21086;44.780;17.194;2022-08-19T01:36:45;24.00;99.90
34877;DHT22;21086;44.780;17.194;2022-08-19T01:47:18;24.10;99.90
34877;DHT22;21086;44.780;17.194;2022-08-19T01:53:19;24.00;99.90
34877;DHT22;21086;44.780;17.194;2022-08-19T01:55:46;24.10;99.90
34877;DHT22;21086;44.780;17.194;2022-08-19T02:14:37;24.30;99.90
34877;DHT22;21086;44.780;17.194;2022-08-19T02:29:47;24.10;99.90
34877;DHT22;21086;44.780;17.194;2022-08-19T02:32:15;24.10;99.90
34877;DHT22;21086;44.780;17.194;2022-08-19T02:34:48;24.10;99.90
34877;DHT22;21086;44.780;17.194;2022-08-19T02:46:22;24.00;99.90
34877;DHT22;21086;44.780;17.194;2022-08-19T02:54:20;24.00;99.90
34877;DHT22;21086;44.780;17.194;2022-08-19T03:06:14;23.90;99.90
34877;DHT22;21086;44.780;17.194;2022-08-19T03:27:53;23.70;99.90
34877;DHT22;21086;44.780;17.194;2022-08-19T04:12:43;23.50;99.90
34877;DHT22;21086;44.780;17.194;2022-08-19T04:15:10;23.30;99.90
34877;DHT22;21086;44.780;17.194;2022-08-19T04:17:37;23.60;99.90
34877;DHT22;21086;44.780;17.194;2022-08-19T04:20:04;23.70;99.90
34877;DHT22;21086;44.780;17.194;2022-08-19T04:39:39;24.10;99.90
34877;DHT22;21086;44.780;17.194;2022-08-19T04:42:28;24.00;99.90
34877;DHT22;21086;44.780;17.194;2022-08-19T04:53:30;24.30;99.90
34877;DHT22;21086;44.780;17.194;2022-08-19T04:58:49;24.40;99.90
34877;DHT22;21086;44.780;17.194;2022-08-19T05:07:47;24.60;99.90
34877;DHT22;21086;44.780;17.194;2022-08-19T05:13:13;24.70;99.90
34877;DHT22;21086;44.780;17.194;2022-08-19T05:18:16;24.70;99.90
34877;DHT22;21086;44.780;17.194;2022-08-19T05:41:14;25.30;99.90
34877;DHT22;21086;44.780;17.194;2022-08-19T05:46:49;25.40;99.90
34877;DHT22;21086;44.780;17.194;2022-08-19T05:49:21;24.60;99.90
34877;DHT22;21086;44.780;17.194;2022-08-19T05:55:01;25.50;99.90
34877;DHT22;21086;44.780;17.194;2022-08-19T05:57:27;25.60;99.90
34877;DHT22;21086;44.780;17.194;2022-08-19T05:59:55;25.70;99.90
34877;DHT22;21086;44.780;17.194;2022-08-19T06:02:26;25.70;99.90
34877;DHT22;21086;44.780;17.194;2022-08-19T06:04:55;25.60;99.90
34877;DHT22;21086;44.780;17.194;2022-08-19T06:07:22;25.70;99.90
34877;DHT22;21086;44.780;17.194;2022-08-19T06:09:50;25.80;99.90
34877;DHT22;21086;44.780;17.194;2022-08-19T06:12:31;25.90;99.90
34877;DHT22;21086;44.780;17.194;2022-08-19T06:15:10;26.10;99.90
34877;DHT22;21086;44.780;17.194;2022-08-19T06:17:37;26.30;99.90
34877;DHT22;21086;44.780;17.194;2022-08-19T06:20:07;26.40;99.90
34877;DHT22;21086;44.780;17.194;2022-08-19T06:22:39;26.50;99.90
34877;DHT22;21086;44.780;17.194;2022-08-19T06:25:07;26.40;99.90
34877;DHT22;21086;44.780;17.194;2022-08-19T06:27:35;26.50;99.90
34877;DHT22;21086;44.780;17.194;2022-08-19T06:30:14;26.60;99.90
34877;DHT22;21086;44.780;17.194;2022-08-19T06:32:41;26.80;99.90
34877;DHT22;21086;44.780;17.194;2022-08-19T06:35:08;27.00;99.90
34877;DHT22;21086;44.780;17.194;2022-08-19T06:37:36;27.10;99.90
34877;DHT22;21086;44.780;17.194;2022-08-19T06:40:09;27.30;99.90
34877;DHT22;21086;44.780;17.194;2022-08-19T06:42:37;27.40;99.90
34877;DHT22;21086;44.780;17.194;2022-08-19T06:45:15;27.50;99.90
34877;DHT22;21086;44.780;17.194;2022-08-19T06:47:42;27.50;99.90
34877;DHT22;21086;44.780;17.194;2022-08-19T06:50:14;27.70;99.90
34877;DHT22;21086;44.780;17.194;2022-08-19T06:52:40;27.80;99.90
34877;DHT22;21086;44.780;17.194;2022-08-19T06:55:08;28.00;99.90
34877;DHT22;21086;44.780;17.194;2022-08-19T06:57:35;28.30;99.90
34877;DHT22;21086;44.780;17.194;2022-08-19T07:00:04;28.40;99.90
34877;DHT22;21086;44.780;17.194;2022-08-19T07:02:35;28.60;99.90
34877;DHT22;21086;44.780;17.194;2022-08-19T07:05:06;28.70;99.90
34877;DHT22;21086;44.780;17.194;2022-08-19T07:07:33;28.80;99.90
34877;DHT22;21086;44.780;17.194;2022-08-19T07:10:02;28.90;99.90
34877;DHT22;21086;44.780;17.194;2022-08-19T07:12:33;29.00;99.90
34877;DHT22;21086;44.780;17.194;2022-08-19T07:15:07;29.00;99.90
34877;DHT22;21086;44.780;17.194;2022-08-19T07:17:36;29.00;99.90
34877;DHT22;21086;44.780;17.194;2022-08-19T07:20:06;29.10;99.90
34877;DHT22;21086;44.780;17.194;2022-08-19T07:22:37;29.30;99.90
34877;DHT22;21086;44.780;17.194;2022-08-19T07:25:06;29.40;99.90
34877;DHT22;21086;44.780;17.194;2022-08-19T07:27:34;29.60;99.90
34877;DHT22;21086;44.780;17.194;2022-08-19T07:30:02;29.70;99.90
34877;DHT22;21086;44.780;17.194;2022-08-19T07:32:29;29.80;99.90
34877;DHT22;21086;44.780;17.194;2022-08-19T07:34:58;29.80;99.90
34877;DHT22;21086;44.780;17.194;2022-08-19T07:37:27;29.90;99.90
34877;DHT22;21086;44.780;17.194;2022-08-19T07:40:03;30.00;99.90
34877;DHT22;21086;44.780;17.194;2022-08-19T07:42:30;30.10;99.90
34877;DHT22;21086;44.780;17.194;2022-08-19T07:44:57;30.30;99.90
34877;DHT22;21086;44.780;17.194;2022-08-19T07:47:25;30.30;99.90
34877;DHT22;21086;44.780;17.194;2022-08-19T07:50:12;30.40;99.90
34877;DHT22;21086;44.780;17.194;2022-08-19T07:52:39;30.60;99.90
34877;DHT22;21086;44.780;17.194;2022-08-19T07:55:09;30.70;99.90
34877;DHT22;21086;44.780;17.194;2022-08-19T07:57:57;30.70;99.90
34877;DHT22;21086;44.780;17.194;2022-08-19T08:00:25;30.60;99.90
34877;DHT22;21086;44.780;17.194;2022-08-19T08:02:53;30.60;99.90
34877;DHT22;21086;44.780;17.194;2022-08-19T08:05:22;30.60;99.90
34877;DHT22;21086;44.780;17.194;2022-08-19T08:08:13;30.70;99.90
34877;DHT22;21086;44.780;17.194;2022-08-19T08:10:59;30.70;99.90
34877;DHT22;21086;44.780;17.194;2022-08-19T08:13:27;30.80;99.90
34877;DHT22;21086;44.780;17.194;2022-08-19T08:15:56;30.80;99.90
34877;DHT22;21086;44.780;17.194;2022-08-19T08:18:24;30.90;99.90
34877;DHT22;21086;44.780;17.194;2022-08-19T08:20:54;30.80;99.90
34877;DHT22;21086;44.780;17.194;2022-08-19T08:23:22;30.70;99.90
34877;DHT22;21086;44.780;17.194;2022-08-19T08:25:54;30.70;99.90
34877;DHT22;21086;44.780;17.194;2022-08-19T08:28:24;30.80;99.90
34877;DHT22;21086;44.780;17.194;2022-08-19T08:30:57;30.80;99.90
34877;DHT22;21086;44.780;17.194;2022-08-19T08:33:26;30.90;99.90
34877;DHT22;21086;44.780;17.194;2022-08-19T08:36:06;31.00;99.90
34877;DHT22;21086;44.780;17.194;2022-08-19T08:38:35;31.20;99.90
34877;DHT22;21086;44.780;17.194;2022-08-19T08:41:31;31.40;99.90
34877;DHT22;21086;44.780;17.194;2022-08-19T08:44:03;31.40;99.90
34877;DHT22;21086;44.780;17.194;2022-08-19T08:46:41;31.20;99.90
34877;DHT22;21086;44.780;17.194;2022-08-19T08:49:33;31.00;99.90
34877;DHT22;21086;44.780;17.194;2022-08-19T08:52:10;30.80;99.90
34877;DHT22;21086;44.780;17.194;2022-08-19T08:54:44;30.50;99.90
34877;DHT22;21086;44.780;17.194;2022-08-19T09:00:25;29.70;99.90
34877;DHT22;21086;44.780;17.194;2022-08-19T09:02:54;29.20;99.90
34877;DHT22;21086;44.780;17.194;2022-08-19T09:05:23;28.80;99.90
34877;DHT22;21086;44.780;17.194;2022-08-19T09:08:19;28.50;99.90
34877;DHT22;21086;44.780;17.194;2022-08-19T09:10:53;28.20;99.90
34877;DHT22;21086;44.780;17.194;2022-08-19T09:15:58;28.00;99.90
34877;DHT22;21086;44.780;17.194;2022-08-19T09:18:52;28.00;99.90
34877;DHT22;21086;44.780;17.194;2022-08-19T09:21:21;28.00;99.90
34877;DHT22;21086;44.780;17.194;2022-08-19T09:23:58;28.00;99.90
34877;DHT22;21086;44.780;17.194;2022-08-19T09:26:26;28.10;99.90
34877;DHT22;21086;44.780;17.194;2022-08-19T09:29:13;28.00;99.90
34877;DHT22;21086;44.780;17.194;2022-08-19T09:31:40;27.80;99.90
34877;DHT22;21086;44.780;17.194;2022-08-19T09:34:07;27.80;99.90
34877;DHT22;21086;44.780;17.194;2022-08-19T09:36:48;27.80;99.90
34877;DHT22;21086;44.780;17.194;2022-08-19T09:39:20;27.90;99.90
34877;DHT22;21086;44.780;17.194;2022-08-19T09:41:47;28.10;99.90
34877;DHT22;21086;44.780;17.194;2022-08-19T09:44:16;28.10;99.90
34877;DHT22;21086;44.780;17.194;2022-08-19T09:46:44;28.10;99.90
34877;DHT22;21086;44.780;17.194;2022-08-19T09:49:14;28.10;99.90
34877;DHT22;21086;44.780;17.194;2022-08-19T09:51:44;28.00;99.90
34877;DHT22;21086;44.780;17.194;2022-08-19T09:54:16;27.70;99.90
34877;DHT22;21086;44.780;17.194;2022-08-19T09:56:52;27.30;99.90
34877;DHT22;21086;44.780;17.194;2022-08-19T09:59:19;26.90;99.90
34877;DHT22;21086;44.780;17.194;2022-08-19T10:01:46;26.30;99.90
34877;DHT22;21086;44.780;17.194;2022-08-19T10:04:13;25.90;99.90
34877;DHT22;21086;44.780;17.194;2022-08-19T10:06:49;25.70;99.90
34877;DHT22;21086;44.780;17.194;2022-08-19T10:09:20;25.50;99.90
34877;DHT22;21086;44.780;17.194;2022-08-19T10:12:00;25.50;99.90
34877;DHT22;21086;44.780;17.194;2022-08-19T10:14:28;25.60;99.90
34877;DHT22;21086;44.780;17.194;2022-08-19T10:16:55;25.60;99.90
34877;DHT22;21086;44.780;17.194;2022-08-19T10:19:25;25.70;99.90
34877;DHT22;21086;44.780;17.194;2022-08-19T10:21:53;25.80;99.90
34877;DHT22;21086;44.780;17.194;2022-08-19T10:24:26;25.80;99.90
34877;DHT22;21086;44.780;17.194;2022-08-19T10:26:54;25.90;99.90
34877;DHT22;21086;44.780;17.194;2022-08-19T10:29:25;25.80;99.90
34877;DHT22;21086;44.780;17.194;2022-08-19T10:31:59;25.90;99.90
34877;DHT22;21086;44.780;17.194;2022-08-19T10:34:29;26.10;99.90
34877;DHT22;21086;44.780;17.194;2022-08-19T10:36:57;26.20;99.90
34877;DHT22;21086;44.780;17.194;2022-08-19T10:39:31;26.30;99.90
34877;DHT22;21086;44.780;17.194;2022-08-19T10:42:10;26.20;99.90
34877;DHT22;21086;44.780;17.194;2022-08-19T10:44:38;26.20;99.90
34877;DHT22;21086;44.780;17.194;2022-08-19T10:47:05;26.20;99.90
34877;DHT22;21086;44.780;17.194;2022-08-19T10:49:48;26.50;99.90
34877;DHT22;21086;44.780;17.194;2022-08-19T10:52:38;26.90;99.90
34877;DHT22;21086;44.780;17.194;2022-08-19T10:55:20;27.20;99.90
34877;DHT22;21086;44.780;17.194;2022-08-19T10:58:14;28.40;99.90
34877;DHT22;21086;44.780;17.194;2022-08-19T11:00:42;27.00;99.90
34877;DHT22;21086;44.780;17.194;2022-08-19T11:03:10;27.00;99.90
34877;DHT22;21086;44.780;17.194;2022-08-19T11:05:37;26.90;99.90
34877;DHT22;21086;44.780;17.194;2022-08-19T11:08:07;27.00;99.90
34877;DHT22;21086;44.780;17.194;2022-08-19T11:10:52;27.00;99.90
34877;DHT22;21086;44.780;17.194;2022-08-19T11:13:22;26.90;99.90
34877;DHT22;21086;44.780;17.194;2022-08-19T11:16:01;26.90;99.90
34877;DHT22;21086;44.780;17.194;2022-08-19T11:18:38;27.00;99.90
34877;DHT22;21086;44.780;17.194;2022-08-19T11:21:08;27.00;99.90
34877;DHT22;21086;44.780;17.194;2022-08-19T11:23:36;26.90;99.90
34877;DHT22;21086;44.780;17.194;2022-08-19T11:26:03;26.90;99.90
34877;DHT22;21086;44.780;17.194;2022-08-19T11:28:30;26.70;99.90
34877;DHT22;21086;44.780;17.194;2022-08-19T11:30:57;26.70;99.90
34877;DHT22;21086;44.780;17.194;2022-08-19T11:33:24;26.60;99.90
34877;DHT22;21086;44.780;17.194;2022-08-19T11:35:53;26.50;99.90
34877;DHT22;21086;44.780;17.194;2022-08-19T11:38:20;26.60;99.90
34877;DHT22;21086;44.780;17.194;2022-08-19T11:41:03;26.60;99.90
34877;DHT22;21086;44.780;17.194;2022-08-19T11:43:31;26.70;99.90
34877;DHT22;21086;44.780;17.194;2022-08-19T11:46:07;26.90;99.90
34877;DHT22;21086;44.780;17.194;2022-08-19T11:48:35;27.10;99.90
34877;DHT22;21086;44.780;17.194;2022-08-19T11:51:14;27.20;99.90
34877;DHT22;21086;44.780;17.194;2022-08-19T11:56:37;27.30;99.90
34877;DHT22;21086;44.780;17.194;2022-08-19T11:59:05;26.60;99.90
34877;DHT22;21086;44.780;17.194;2022-08-19T12:01:36;27.40;99.90
34877;DHT22;21086;44.780;17.194;2022-08-19T12:04:03;27.60;99.90
34877;DHT22;21086;44.780;17.194;2022-08-19T12:06:32;28.00;99.90
34877;DHT22;21086;44.780;17.194;2022-08-19T12:09:06;28.20;99.90
34877;DHT22;21086;44.780;17.194;2022-08-19T12:11:34;28.50;99.90
34877;DHT22;21086;44.780;17.194;2022-08-19T12:14:01;28.70;99.90
34877;DHT22;21086;44.780;17.194;2022-08-19T12:16:30;28.60;99.90
34877;DHT22;21086;44.780;17.194;2022-08-19T12:18:59;28.60;99.90
34877;DHT22;21086;44.780;17.194;2022-08-19T12:21:32;28.60;99.90
34877;DHT22;21086;44.780;17.194;2022-08-19T12:24:01;28.40;99.90
34877;DHT22;21086;44.780;17.194;2022-08-19T12:26:29;28.30;99.90
34877;DHT22;21086;44.780;17.194;2022-08-19T12:28:59;28.30;99.90
34877;DHT22;21086;44.780;17.194;2022-08-19T12:31:27;28.30;99.90
34877;DHT22;21086;44.780;17.194;2022-08-19T12:33:55;28.40;99.90
34877;DHT22;21086;44.780;17.194;2022-08-19T12:36:23;28.60;99.90
34877;DHT22;21086;44.780;17.194;2022-08-19T12:38:52;28.70;99.90
34877;DHT22;21086;44.780;17.194;2022-08-19T12:41:19;28.90;99.90
34877;DHT22;21086;44.780;17.194;2022-08-19T12:43:49;28.90;99.90
34877;DHT22;21086;44.780;17.194;2022-08-19T12:46:18;29.00;99.90
34877;DHT22;21086;44.780;17.194;2022-08-19T12:48:48;29.10;99.90
34877;DHT22;21086;44.780;17.194;2022-08-19T12:51:20;29.30;99.90
34877;DHT22;21086;44.780;17.194;2022-08-19T12:53:48;29.50;99.90
34877;DHT22;21086;44.780;17.194;2022-08-19T12:56:16;29.80;99.90
34877;DHT22;21086;44.780;17.194;2022-08-19T12:58:49;30.10;99.90
34877;DHT22;21086;44.780;17.194;2022-08-19T13:01:19;30.10;99.90
34877;DHT22;21086;44.780;17.194;2022-08-19T13:03:50;29.90;99.90
34877;DHT22;21086;44.780;17.194;2022-08-19T13:06:20;29.80;99.90
34877;DHT22;21086;44.780;17.194;2022-08-19T13:08:48;29.70;99.90
34877;DHT22;21086;44.780;17.194;2022-08-19T13:11:17;29.70;99.90
34877;DHT22;21086;44.780;17.194;2022-08-19T13:13:48;29.50;99.90
34877;DHT22;21086;44.780;17.194;2022-08-19T13:16:15;29.40;99.90
34877;DHT22;21086;44.780;17.194;2022-08-19T13:18:49;28.70;99.90
34877;DHT22;21086;44.780;17.194;2022-08-19T13:21:21;29.30;99.90
34877;DHT22;21086;44.780;17.194;2022-08-19T13:23:51;28.20;99.90
34877;DHT22;21086;44.780;17.194;2022-08-19T13:26:18;28.40;99.90
34877;DHT22;21086;44.780;17.194;2022-08-19T13:28:46;29.80;99.90
34877;DHT22;21086;44.780;17.194;2022-08-19T13:31:34;29.90;99.90
34877;DHT22;21086;44.780;17.194;2022-08-19T13:34:33;30.60;99.90
34877;DHT22;21086;44.780;17.194;2022-08-19T13:37:01;31.50;99.90
34877;DHT22;21086;44.780;17.194;2022-08-19T13:39:31;32.70;99.90
34877;DHT22;21086;44.780;17.194;2022-08-19T13:41:59;34.70;99.90
34877;DHT22;21086;44.780;17.194;2022-08-19T13:44:27;35.50;99.90
34877;DHT22;21086;44.780;17.194;2022-08-19T13:47:06;35.50;99.90
34877;DHT22;21086;44.780;17.194;2022-08-19T13:49:34;35.80;99.90
34877;DHT22;21086;44.780;17.194;2022-08-19T13:52:04;35.60;99.90
34877;DHT22;21086;44.780;17.194;2022-08-19T13:54:31;35.50;99.90
34877;DHT22;21086;44.780;17.194;2022-08-19T13:56:59;35.20;99.90
34877;DHT22;21086;44.780;17.194;2022-08-19T13:59:25;35.10;99.90
34877;DHT22;21086;44.780;17.194;2022-08-19T14:01:56;35.20;99.90
34877;DHT22;21086;44.780;17.194;2022-08-19T14:04:23;34.90;99.90
34877;DHT22;21086;44.780;17.194;2022-08-19T14:06:50;34.50;99.90
34877;DHT22;21086;44.780;17.194;2022-08-19T14:09:17;33.40;99.90
34877;DHT22;21086;44.780;17.194;2022-08-19T14:11:44;32.80;99.90
34877;DHT22;21086;44.780;17.194;2022-08-19T14:14:13;32.10;99.90
34877;DHT22;21086;44.780;17.194;2022-08-19T14:16:42;31.60;99.90
34877;DHT22;21086;44.780;17.194;2022-08-19T14:24:30;30.50;99.90
34877;DHT22;21086;44.780;17.194;2022-08-19T14:26:59;30.00;99.90
34877;DHT22;21086;44.780;17.194;2022-08-19T14:32:11;29.80;99.90
34877;DHT22;21086;44.780;17.194;2022-08-19T14:34:45;28.30;99.90
34877;DHT22;21086;44.780;17.194;2022-08-19T14:37:13;29.30;99.90
34877;DHT22;21086;44.780;17.194;2022-08-19T14:39:43;29.10;99.90
34877;DHT22;21086;44.780;17.194;2022-08-19T14:42:11;29.10;99.90
34877;DHT22;21086;44.780;17.194;2022-08-19T14:44:42;29.10;99.90
34877;DHT22;21086;44.780;17.194;2022-08-19T14:47:09;28.90;99.90
34877;DHT22;21086;44.780;17.194;2022-08-19T14:49:36;28.70;99.90
34877;DHT22;21086;44.780;17.194;2022-08-19T14:52:11;28.50;99.90
34877;DHT22;21086;44.780;17.194;2022-08-19T14:54:38;28.30;99.90
34877;DHT22;21086;44.780;17.194;2022-08-19T14:57:05;28.20;99.90
34877;DHT22;21086;44.780;17.194;2022-08-19T14:59:34;28.00;99.90
34877;DHT22;21086;44.780;17.194;2022-08-19T15:02:01;28.10;99.90
34877;DHT22;21086;44.780;17.194;2022-08-19T15:04:49;28.10;99.90
34877;DHT22;21086;44.780;17.194;2022-08-19T15:07:25;27.80;99.90
34877;DHT22;21086;44.780;17.194;2022-08-19T15:09:55;27.70;99.90
34877;DHT22;21086;44.780;17.194;2022-08-19T15:12:22;27.60;99.90
34877;DHT22;21086;44.780;17.194;2022-08-19T15:14:50;27.50;99.90
34877;DHT22;21086;44.780;17.194;2022-08-19T15:17:22;27.50;99.90
34877;DHT22;21086;44.780;17.194;2022-08-19T15:20:12;27.50;99.90
34877;DHT22;21086;44.780;17.194;2022-08-19T15:22:39;27.40;99.90
34877;DHT22;21086;44.780;17.194;2022-08-19T15:25:09;27.20;99.90
34877;DHT22;21086;44.780;17.194;2022-08-19T15:30:21;23.50;99.90
34877;DHT22;21086;44.780;17.194;2022-08-19T15:35:23;24.60;99.90
34877;DHT22;21086;44.780;17.194;2022-08-19T15:37:52;34.40;99.90
34877;DHT22;21086;44.780;17.194;2022-08-19T15:40:20;35.50;99.90
34877;DHT22;21086;44.780;17.194;2022-08-19T15:45:28;32.00;99.90
34877;DHT22;21086;44.780;17.194;2022-08-19T15:48:03;44.30;99.90
34877;DHT22;21086;44.780;17.194;2022-08-19T15:50:31;33.20;99.90
34877;DHT22;21086;44.780;17.194;2022-08-19T15:53:02;35.50;99.90
34877;DHT22;21086;44.780;17.194;2022-08-19T15:55:32;37.80;99.90
34877;DHT22;21086;44.780;17.194;2022-08-19T16:00:47;35.30;99.90
34877;DHT22;21086;44.780;17.194;2022-08-19T16:06:23;46.90;99.90
34877;DHT22;21086;44.780;17.194;2022-08-19T16:08:59;40.40;99.90
34877;DHT22;21086;44.780;17.194;2022-08-19T16:11:31;46.00;99.90
34877;DHT22;21086;44.780;17.194;2022-08-19T16:17:17;41.50;99.90
34877;DHT22;21086;44.780;17.194;2022-08-19T16:25:34;37.00;99.90
34877;DHT22;21086;44.780;17.194;2022-08-19T16:28:02;35.50;99.90
34877;DHT22;21086;44.780;17.194;2022-08-19T16:36:21;34.80;99.90
34877;DHT22;21086;44.780;17.194;2022-08-19T16:38:53;39.70;99.90
34877;DHT22;21086;44.780;17.194;2022-08-19T16:49:51;37.30;99.90
34877;DHT22;21086;44.780;17.194;2022-08-19T16:57:55;35.50;99.90
34877;DHT22;21086;44.780;17.194;2022-08-19T17:03:36;39.70;99.90
34877;DHT22;21086;44.780;17.194;2022-08-19T17:06:11;30.10;99.90
34877;DHT22;21086;44.780;17.194;2022-08-19T17:08:47;33.40;99.90
34877;DHT22;21086;44.780;17.194;2022-08-19T17:11:16;39.70;99.90
34877;DHT22;21086;44.780;17.194;2022-08-19T17:19:31;31.70;99.90
34877;DHT22;21086;44.780;17.194;2022-08-19T17:30:55;32.70;99.90
34877;DHT22;21086;44.780;17.194;2022-08-19T17:36:28;29.60;99.90
34877;DHT22;21086;44.780;17.194;2022-08-19T17:38:57;29.70;99.90
34877;DHT22;21086;44.780;17.194;2022-08-19T17:41:58;31.20;99.90
34877;DHT22;21086;44.780;17.194;2022-08-19T17:47:18;27.20;99.90
34877;DHT22;21086;44.780;17.194;2022-08-19T17:52:47;24.90;99.90
34877;DHT22;21086;44.780;17.194;2022-08-19T18:01:08;30.00;99.90
34877;DHT22;21086;44.780;17.194;2022-08-19T18:07:09;26.80;99.90
34877;DHT22;21086;44.780;17.194;2022-08-19T18:09:44;24.60;99.90
34877;DHT22;21086;44.780;17.194;2022-08-19T18:12:15;29.10;99.90
34877;DHT22;21086;44.780;17.194;2022-08-19T18:21:17;27.20;99.90
34877;DHT22;21086;44.780;17.194;2022-08-19T18:23:44;27.00;99.90
34877;DHT22;21086;44.780;17.194;2022-08-19T18:29:31;26.40;99.90
34877;DHT22;21086;44.780;17.194;2022-08-19T18:34:50;26.30;99.90
34877;DHT22;21086;44.780;17.194;2022-08-19T18:37:16;28.10;99.90
34877;DHT22;21086;44.780;17.194;2022-08-19T18:47:48;26.80;99.90
34877;DHT22;21086;44.780;17.194;2022-08-19T18:57:08;27.90;99.90
34877;DHT22;21086;44.780;17.194;2022-08-19T19:13:58;28.40;99.90
34877;DHT22;21086;44.780;17.194;2022-08-19T19:25:56;21.50;99.90
34877;DHT22;21086;44.780;17.194;2022-08-19T19:34:13;24.80;99.90
34877;DHT22;21086;44.780;17.194;2022-08-19T19:39:57;21.10;99.90
34877;DHT22;21086;44.780;17.194;2022-08-19T19:47:42;27.40;99.90
34877;DHT22;21086;44.780;17.194;2022-08-19T19:58:31;23.00;99.90
34877;DHT22;21086;44.780;17.194;2022-08-19T20:04:31;20.60;99.90
34877;DHT22;21086;44.780;17.194;2022-08-19T20:16:09;22.40;99.90
34877;DHT22;21086;44.780;17.194;2022-08-19T20:18:36;27.60;99.90
34877;DHT22;21086;44.780;17.194;2022-08-19T20:26:25;20.30;99.90
34877;DHT22;21086;44.780;17.194;2022-08-19T20:35:25;22.80;99.90
34877;DHT22;21086;44.780;17.194;2022-08-19T20:37:52;22.50;99.90
34877;DHT22;21086;44.780;17.194;2022-08-19T20:51:29;19.00;99.90
34877;DHT22;21086;44.780;17.194;2022-08-19T21:00:01;22.60;99.90
34877;DHT22;21086;44.780;17.194;2022-08-19T21:05:19;18.70;99.90
34877;DHT22;21086;44.780;17.194;2022-08-19T21:18:37;26.00;99.90
34877;DHT22;21086;44.780;17.194;2022-08-19T21:21:07;20.80;99.90
34877;DHT22;21086;44.780;17.194;2022-08-19T21:32:27;23.60;99.90
34877;DHT22;21086;44.780;17.194;2022-08-19T21:37:29;25.30;99.90
34877;DHT22;21086;44.780;17.194;2022-08-19T22:00:38;18.80;99.90
34877;DHT22;21086;44.780;17.194;2022-08-19T22:03:05;16.80;99.90
34877;DHT22;21086;44.780;17.194;2022-08-19T22:08:18;22.10;99.90
34877;DHT22;21086;44.780;17.194;2022-08-19T22:10:44;21.20;99.90
34877;DHT22;21086;44.780;17.194;2022-08-19T22:26:42;22.40;1.00
34877;DHT22;21086;44.780;17.194;2022-08-19T22:29:10;18.20;99.90
34877;DHT22;21086;44.780;17.194;2022-08-19T22:39:49;18.70;54.80
34877;DHT22;21086;44.780;17.194;2022-08-19T22:42:18;19.00;18.00
34877;DHT22;21086;44.780;17.194;2022-08-19T22:44:46;22.80;1.00
34877;DHT22;21086;44.780;17.194;2022-08-19T22:47:13;19.80;1.00
34877;DHT22;21086;44.780;17.194;2022-08-19T22:49:41;20.90;1.00
34877;DHT22;21086;44.780;17.194;2022-08-19T22:52:08;21.40;1.00
34877;DHT22;21086;44.780;17.194;2022-08-19T22:54:49;21.10;1.00
34877;DHT22;21086;44.780;17.194;2022-08-19T22:57:19;20.40;1.00
34877;DHT22;21086;44.780;17.194;2022-08-19T22:59:48;21.40;1.00
34877;DHT22;21086;44.780;17.194;2022-08-19T23:02:22;21.20;1.00
34877;DHT22;21086;44.780;17.194;2022-08-19T23:05:09;20.40;1.00
34877;DHT22;21086;44.780;17.194;2022-08-19T23:07:36;18.60;1.00
34877;DHT22;21086;44.780;17.194;2022-08-19T23:12:41;21.00;1.00
34877;DHT22;21086;44.780;17.194;2022-08-19T23:15:16;20.80;1.00
34877;DHT22;21086;44.780;17.194;2022-08-19T23:17:44;21.40;1.00
34877;DHT22;21086;44.780;17.194;2022-08-19T23:20:13;20.40;1.00
34877;DHT22;21086;44.780;17.194;2022-08-19T23:22:42;21.20;1.00
34877;DHT22;21086;44.780;17.194;2022-08-19T23:33:28;21.40;1.00
34877;DHT22;21086;44.780;17.194;2022-08-19T23:36:16;20.90;1.00
